createdAt,value
2022-09-09T00:00:48.093Z,15.79
2022-09-09T00:05:49.816Z,15.69
2022-09-09T00:10:43.912Z,15.60
2022-09-09T00:15:47.941Z,15.65
2022-09-09T00:20:55.953Z,15.62
2022-09-09T00:26:04.496Z,15.66
2022-09-09T00:31:06.838Z,15.57
2022-09-09T00:36:03.995Z,15.52
2022-09-09T00:41:09.656Z,15.34
2022-09-09T00:46:41.057Z,15.31
2022-09-09T00:51:56.495Z,15.31
2022-09-09T00:57:05.772Z,15.32
2022-09-09T01:02:02.435Z,15.40
2022-09-09T01:07:10.519Z,15.31
2022-09-09T01:12:13.717Z,15.22
2022-09-09T01:17:17.075Z,15.30
2022-09-09T01:22:23.151Z,15.29
2022-09-09T01:27:20.417Z,15.42
2022-09-09T01:32:44.531Z,15.34
2022-09-09T01:37:38.783Z,15.39
2022-09-09T01:42:33.646Z,15.11
2022-09-09T01:47:27.716Z,15.16
2022-09-09T01:52:21.077Z,15.29
2022-09-09T01:57:22.488Z,15.25
2022-09-09T02:02:23.434Z,15.15
2022-09-09T02:07:35.873Z,15.05
2022-09-09T02:12:32.597Z,15.08
2022-09-09T02:17:33.532Z,15.40
2022-09-09T02:22:30.700Z,15.40
2022-09-09T02:27:25.747Z,15.51
2022-09-09T02:32:24.851Z,15.48
2022-09-09T02:37:24.909Z,15.43
2022-09-09T02:42:18.202Z,15.47
2022-09-09T02:47:37.691Z,15.48
2022-09-09T02:52:49.503Z,15.52
2022-09-09T02:57:46.380Z,15.60
2022-09-09T03:02:39.678Z,15.60
2022-09-09T03:07:34.480Z,15.62
2022-09-09T03:12:27.764Z,15.79
2022-09-09T03:17:23.035Z,15.82
2022-09-09T03:22:16.415Z,15.71
2022-09-09T03:27:11.391Z,15.76
2022-09-09T03:32:05.177Z,15.68
2022-09-09T03:36:58.519Z,15.89
2022-09-09T03:41:51.754Z,15.81
2022-09-09T03:46:46.815Z,15.93
2022-09-09T03:51:41.430Z,15.83
2022-09-09T03:56:34.683Z,15.88
2022-09-09T04:01:29.105Z,15.93
2022-09-09T04:06:24.027Z,15.98
2022-09-09T04:11:17.735Z,16.01
2022-09-09T04:16:14.219Z,16.06
2022-09-09T04:21:08.920Z,16.02
2022-09-09T04:26:05.312Z,16.10
2022-09-09T04:30:59.241Z,16.00
2022-09-09T04:35:55.126Z,16.02
2022-09-09T04:40:49.524Z,16.11
2022-09-09T04:45:44.562Z,16.00
2022-09-09T04:50:38.521Z,16.05
2022-09-09T04:55:32.245Z,16.06
2022-09-09T05:00:28.653Z,16.02
2022-09-09T05:05:23.458Z,15.94
2022-09-09T05:10:19.069Z,15.82
2022-09-09T05:15:12.805Z,15.78
2022-09-09T05:20:09.901Z,15.82
2022-09-09T05:25:06.875Z,15.60
2022-09-09T05:30:00.120Z,15.63
2022-09-09T05:34:53.661Z,15.69
2022-09-09T05:39:47.506Z,15.67
2022-09-09T05:44:45.930Z,15.75
2022-09-09T05:49:39.275Z,15.70
2022-09-09T05:54:33.620Z,15.60
2022-09-09T05:59:26.853Z,15.70
2022-09-09T06:04:23.545Z,15.76
2022-09-09T06:09:16.938Z,15.73
2022-09-09T06:14:11.340Z,15.81
2022-09-09T06:19:05.311Z,15.88
2022-09-09T06:24:01.278Z,15.88
2022-09-09T06:28:58.359Z,15.90
2022-09-09T06:33:53.798Z,15.85
2022-09-09T06:38:48.123Z,15.93
2022-09-09T06:43:42.699Z,16.06
2022-09-09T06:48:36.862Z,16.13
2022-09-09T06:53:30.849Z,16.21
2022-09-09T06:58:24.257Z,16.36
2022-09-09T07:03:18.894Z,16.34
2022-09-09T07:08:13.322Z,16.41
2022-09-09T07:13:07.407Z,16.52
2022-09-09T07:18:04.041Z,16.57
2022-09-09T07:22:59.454Z,16.66
2022-09-09T07:27:52.653Z,16.57
2022-09-09T07:32:45.875Z,16.62
2022-09-09T07:37:39.467Z,16.63
2022-09-09T07:42:44.494Z,16.66
2022-09-09T07:47:37.839Z,16.76
2022-09-09T07:52:31.070Z,16.89
2022-09-09T07:57:24.446Z,17.06
2022-09-09T08:02:34.613Z,17.41
2022-09-09T08:07:28.281Z,17.43
2022-09-09T08:12:21.840Z,17.91
2022-09-09T08:17:15.090Z,18.12
2022-09-09T08:22:09.836Z,18.32
2022-09-09T08:27:03.151Z,18.47
2022-09-09T08:31:59.484Z,18.42
2022-09-09T08:36:54.036Z,18.68
2022-09-09T08:42:30.417Z,18.99
2022-09-09T08:47:37.173Z,19.17
2022-09-09T08:52:34.865Z,19.52
2022-09-09T08:57:33.238Z,19.46
2022-09-09T09:02:40.412Z,19.58
2022-09-09T09:08:00.801Z,19.19
2022-09-09T09:13:10.209Z,18.99
2022-09-09T09:18:07.621Z,18.94
2022-09-09T09:23:06.358Z,18.74
2022-09-09T09:28:06.841Z,18.51
2022-09-09T09:33:10.908Z,18.37
2022-09-09T09:43:37.476Z,18.61
2022-09-09T09:48:31.338Z,18.62
2022-09-09T09:53:28.676Z,18.72
2022-09-09T09:58:22.112Z,18.91
2022-09-09T10:03:28.019Z,18.78
2022-09-09T10:08:22.469Z,18.81
2022-09-09T10:13:26.018Z,18.77
2022-09-09T10:18:47.990Z,18.82
2022-09-09T10:24:05.429Z,18.74
2022-09-09T10:29:31.136Z,18.82
2022-09-09T10:34:59.701Z,18.79
2022-09-09T10:40:04.637Z,18.75
2022-09-09T10:45:17.779Z,19.01
2022-09-09T10:55:58.993Z,19.11
2022-09-09T11:00:58.421Z,19.15
2022-09-09T11:06:02.152Z,18.98
2022-09-09T11:11:05.048Z,18.89
2022-09-09T11:16:14.381Z,18.69
2022-09-09T11:21:19.612Z,18.64
2022-09-09T11:26:21.895Z,18.59
2022-09-09T11:31:45.926Z,19.03
2022-09-09T11:37:18.312Z,19.41
2022-09-09T11:42:20.930Z,19.81
2022-09-09T11:47:30.287Z,20.31
2022-09-09T11:52:38.702Z,20.46
2022-09-09T11:57:38.055Z,20.13
2022-09-09T12:02:32.930Z,20.09
2022-09-09T12:07:38.084Z,20.29
2022-09-09T12:12:40.376Z,20.33
2022-09-09T12:17:47.633Z,20.30
2022-09-09T12:23:13.280Z,20.46
2022-09-09T12:28:16.229Z,20.60
2022-09-09T12:33:16.163Z,20.59
2022-09-09T12:38:22.154Z,20.56
2022-09-09T12:43:22.292Z,20.62
2022-09-09T12:48:20.639Z,20.60
2022-09-09T12:53:35.251Z,20.64
2022-09-09T12:58:33.824Z,20.65
2022-09-09T13:03:28.455Z,20.59
2022-09-09T13:08:27.926Z,20.59
2022-09-09T13:13:58.979Z,20.48
2022-09-09T13:19:39.468Z,20.44
2022-09-09T13:31:04.000Z,20.31
2022-09-09T13:36:42.723Z,20.30
2022-09-09T13:41:47.512Z,20.14
2022-09-09T13:48:14.778Z,20.22
2022-09-09T13:53:10.665Z,20.25
2022-09-09T13:58:33.241Z,20.44
2022-09-09T14:03:34.899Z,20.60
2022-09-09T14:09:16.609Z,20.85
2022-09-09T14:14:27.086Z,21.07
2022-09-09T14:19:23.647Z,21.19
2022-09-09T14:24:44.586Z,21.34
2022-09-09T14:43:02.312Z,20.44
2022-09-09T14:50:44.303Z,20.19
2022-09-09T14:54:59.653Z,20.07
2022-09-09T15:05:52.896Z,19.80
2022-09-09T15:11:02.306Z,19.92
2022-09-09T15:16:28.611Z,20.12
2022-09-09T15:21:25.890Z,20.30
2022-09-09T15:26:20.006Z,20.54
2022-09-09T15:31:18.528Z,20.49
2022-09-09T15:36:26.743Z,20.39
2022-09-09T15:42:42.740Z,20.50
2022-09-09T15:47:37.663Z,20.59
2022-09-09T15:52:30.931Z,20.58
2022-09-09T15:57:24.226Z,20.46
2022-09-09T16:02:24.608Z,20.30
2022-09-09T16:07:19.326Z,20.18
2022-09-09T16:12:14.089Z,19.99
2022-09-09T16:17:15.507Z,19.92
2022-09-09T16:22:08.995Z,19.92
2022-09-09T16:27:03.616Z,19.85
2022-09-09T16:32:02.710Z,19.87
2022-09-09T16:36:57.173Z,19.69
2022-09-09T16:41:51.112Z,19.59
2022-09-09T16:46:49.600Z,19.41
2022-09-09T16:51:45.867Z,19.17
2022-09-09T16:56:42.647Z,19.17
2022-09-09T17:01:39.627Z,19.08
2022-09-09T17:06:38.220Z,19.00
2022-09-09T17:11:32.252Z,18.87
2022-09-09T17:16:33.020Z,18.70
2022-09-09T17:21:28.561Z,18.58
2022-09-09T17:26:27.556Z,18.40
2022-09-09T17:31:21.344Z,18.33
2022-09-09T17:36:17.565Z,18.38
2022-09-09T17:41:14.528Z,18.31
2022-09-09T17:46:12.751Z,18.33
2022-09-09T17:51:08.723Z,18.29
2022-09-09T17:56:07.396Z,18.42
2022-09-09T18:01:06.636Z,18.49
2022-09-09T18:06:05.816Z,18.56
2022-09-09T18:10:59.156Z,17.64
2022-09-09T18:15:52.505Z,17.24
2022-09-09T18:20:45.827Z,16.92
2022-09-09T18:25:41.991Z,16.72
2022-09-09T18:30:38.786Z,16.88
2022-09-09T18:35:32.028Z,16.86
2022-09-09T18:40:30.144Z,16.80
2022-09-09T18:45:24.792Z,16.79
2022-09-09T18:50:19.061Z,16.84
2022-09-09T18:55:12.626Z,16.90
2022-09-09T19:00:09.655Z,16.67
2022-09-09T19:05:04.717Z,16.70
2022-09-09T19:09:57.967Z,16.72
2022-09-09T19:14:52.960Z,16.74
2022-09-09T19:19:46.250Z,16.69
2022-09-09T19:24:40.964Z,16.39
2022-09-09T19:29:39.429Z,16.29
2022-09-09T19:34:32.915Z,16.32
2022-09-09T19:39:26.624Z,16.49
2022-09-09T19:44:21.570Z,16.27
2022-09-09T19:49:17.308Z,16.29
2022-09-09T19:54:15.402Z,16.31
2022-09-09T19:59:10.763Z,16.37
2022-09-09T20:04:07.915Z,16.23
2022-09-09T20:09:04.791Z,16.24
2022-09-09T20:13:58.031Z,16.16
2022-09-09T20:18:54.186Z,16.07
2022-09-09T20:23:50.984Z,16.11
2022-09-09T20:28:48.172Z,16.06
2022-09-09T20:33:43.828Z,16.17
2022-09-09T20:38:38.223Z,16.17
2022-09-09T20:43:33.181Z,16.13
2022-09-09T20:48:26.456Z,15.88
2022-09-09T20:53:19.671Z,15.79
2022-09-09T20:58:12.892Z,15.56
2022-09-09T21:03:07.446Z,15.46
2022-09-09T21:08:01.283Z,15.48
2022-09-09T21:12:54.586Z,15.42
2022-09-09T21:17:47.892Z,15.55
2022-09-09T21:22:42.505Z,15.54
2022-09-09T21:27:35.743Z,15.57
2022-09-09T21:32:29.026Z,15.54
2022-09-09T21:37:22.251Z,15.55
2022-09-09T21:42:16.834Z,15.31
2022-09-09T21:47:10.116Z,15.26
2022-09-09T21:52:03.917Z,15.29
2022-09-09T21:56:57.267Z,15.37
2022-09-09T22:01:53.936Z,15.44
2022-09-09T22:06:48.071Z,15.40
2022-09-09T22:11:41.278Z,15.33
2022-09-09T22:16:34.693Z,15.33
2022-09-09T22:21:32.984Z,15.43
2022-09-09T22:26:28.989Z,15.31
2022-09-09T22:31:23.706Z,15.36
2022-09-09T22:36:17.189Z,15.40
2022-09-09T22:41:11.796Z,15.39
2022-09-09T22:46:05.823Z,15.48
2022-09-09T22:51:04.278Z,15.26
2022-09-09T22:56:00.447Z,15.30
2022-09-09T23:00:58.766Z,15.30
2022-09-09T23:05:57.546Z,15.26
2022-09-09T23:10:50.884Z,15.33
2022-09-09T23:15:46.311Z,15.11
2022-09-09T23:20:40.926Z,15.14
2022-09-09T23:25:36.355Z,15.19
2022-09-09T23:30:30.115Z,15.29
2022-09-09T23:35:23.491Z,15.26
2022-09-09T23:40:18.305Z,15.36
2022-09-09T23:45:12.343Z,15.25
2022-09-09T23:50:07.740Z,15.30
2022-09-09T23:55:00.942Z,15.19
2022-09-09T23:59:55.516Z,15.15
